createdAt,value
2019-03-15T00:00:38.232Z,1.70
2019-03-15T00:03:06.891Z,1.80
2019-03-15T00:05:35.551Z,1.30
2019-03-15T00:08:04.281Z,1.30
2019-03-15T00:10:33.274Z,0.83
2019-03-15T00:13:02.297Z,1.13
2019-03-15T00:15:31.030Z,0.90
2019-03-15T00:17:59.749Z,0.90
2019-03-15T00:20:28.391Z,1.10
2019-03-15T00:22:57.613Z,1.20
2019-03-15T00:25:26.285Z,1.07
2019-03-15T00:27:55.599Z,1.00
2019-03-15T00:30:24.349Z,0.70
2019-03-15T00:32:53.014Z,0.93
2019-03-15T00:35:21.962Z,0.80
2019-03-15T00:37:50.660Z,0.60
2019-03-15T00:40:19.387Z,1.00
2019-03-15T00:42:48.049Z,0.87
2019-03-15T00:45:16.706Z,1.33
2019-03-15T00:47:45.675Z,0.90
2019-03-15T00:50:14.437Z,1.20
2019-03-15T00:52:43.112Z,1.53
2019-03-15T00:55:12.180Z,1.03
2019-03-15T00:57:41.156Z,0.80
2019-03-15T01:00:11.702Z,0.97
2019-03-15T01:02:40.353Z,0.90
2019-03-15T01:05:09.095Z,1.30
2019-03-15T01:07:37.826Z,1.13
2019-03-15T01:10:06.734Z,1.00
2019-03-15T01:12:35.673Z,1.27
2019-03-15T01:15:05.258Z,0.90
2019-03-15T01:17:33.909Z,1.00
2019-03-15T01:20:02.910Z,1.10
2019-03-15T01:22:31.812Z,1.33
2019-03-15T01:25:00.783Z,0.83
2019-03-15T01:27:29.752Z,1.37
2019-03-15T01:29:58.696Z,1.20
2019-03-15T01:32:27.343Z,1.23
2019-03-15T01:34:56.007Z,1.27
2019-03-15T01:37:25.101Z,0.93
2019-03-15T01:39:54.115Z,1.57
2019-03-15T01:42:23.623Z,1.27
2019-03-15T01:44:53.282Z,1.00
2019-03-15T01:47:22.302Z,1.13
2019-03-15T01:49:50.967Z,1.13
2019-03-15T01:52:19.745Z,1.30
2019-03-15T01:54:48.632Z,1.70
2019-03-15T01:57:17.549Z,1.17
2019-03-15T01:59:46.449Z,1.20
2019-03-15T02:02:15.135Z,0.87
2019-03-15T02:04:43.787Z,2.03
2019-03-15T02:07:13.010Z,1.17
2019-03-15T02:09:42.026Z,1.07
2019-03-15T02:12:10.701Z,1.50
2019-03-15T02:14:39.671Z,1.00
2019-03-15T02:17:08.328Z,1.43
2019-03-15T02:19:36.992Z,1.30
2019-03-15T02:22:05.647Z,1.73
2019-03-15T02:24:34.312Z,1.40
2019-03-15T02:27:02.969Z,1.53
2019-03-15T02:29:31.662Z,1.67
2019-03-15T02:32:01.383Z,1.30
2019-03-15T02:34:30.347Z,1.00
2019-03-15T02:36:59.312Z,1.60
2019-03-15T02:39:28.027Z,1.00
2019-03-15T02:41:56.713Z,2.07
2019-03-15T02:44:25.658Z,1.50
2019-03-15T02:46:54.312Z,1.10
2019-03-15T02:49:23.229Z,1.00
2019-03-15T02:51:52.225Z,1.60
2019-03-15T02:54:20.890Z,1.10
2019-03-15T02:56:49.552Z,1.20
2019-03-15T02:59:23.817Z,1.57
2019-03-15T03:01:52.775Z,2.20
2019-03-15T03:04:21.472Z,1.37
2019-03-15T03:06:50.592Z,1.00
2019-03-15T03:09:19.512Z,1.90
2019-03-15T03:11:48.655Z,1.10
2019-03-15T03:14:19.009Z,1.10
2019-03-15T03:16:47.660Z,1.37
2019-03-15T03:19:16.608Z,1.43
2019-03-15T03:21:45.280Z,1.20
2019-03-15T03:24:13.925Z,1.23
2019-03-15T03:26:42.908Z,1.37
2019-03-15T03:29:11.577Z,1.20
2019-03-15T03:31:40.272Z,1.40
2019-03-15T03:34:09.165Z,1.00
2019-03-15T03:36:38.307Z,1.03
2019-03-15T03:39:06.986Z,1.47
2019-03-15T03:41:35.665Z,1.10
2019-03-15T03:44:04.680Z,1.40
2019-03-15T03:46:33.675Z,1.70
2019-03-15T03:49:02.347Z,1.57
2019-03-15T03:51:30.985Z,1.10
2019-03-15T03:53:59.716Z,1.30
2019-03-15T03:56:28.370Z,0.83
2019-03-15T03:58:57.107Z,0.90
2019-03-15T04:01:25.831Z,1.00
2019-03-15T04:03:54.893Z,1.03
2019-03-15T04:06:23.884Z,0.77
2019-03-15T04:08:52.537Z,1.20
2019-03-15T04:11:21.281Z,1.13
2019-03-15T04:13:50.340Z,1.50
2019-03-15T04:16:18.979Z,1.40
2019-03-15T04:18:47.635Z,1.30
2019-03-15T04:21:16.293Z,1.27
2019-03-15T04:23:44.931Z,1.73
2019-03-15T04:26:13.885Z,0.93
2019-03-15T04:28:42.824Z,1.40
2019-03-15T04:31:11.876Z,1.07
2019-03-15T04:33:40.538Z,1.27
2019-03-15T04:36:09.207Z,1.73
2019-03-15T04:38:37.842Z,1.57
2019-03-15T04:41:06.498Z,1.13
2019-03-15T04:43:35.157Z,1.40
2019-03-15T04:46:03.845Z,1.23
2019-03-15T04:48:32.575Z,1.27
2019-03-15T04:51:01.248Z,0.97
2019-03-15T04:53:29.903Z,1.03
2019-03-15T04:55:58.628Z,1.20
2019-03-15T04:58:27.292Z,1.23
2019-03-15T05:00:55.971Z,1.30
2019-03-15T05:03:24.932Z,1.27
2019-03-15T05:06:03.193Z,0.73
2019-03-15T05:08:24.428Z,1.33
2019-03-15T05:10:53.822Z,1.27
2019-03-15T05:13:22.493Z,1.07
2019-03-15T05:15:51.155Z,1.53
2019-03-15T05:18:19.846Z,0.80
2019-03-15T05:20:48.514Z,1.10
2019-03-15T05:23:17.244Z,1.27
2019-03-15T05:25:45.945Z,0.97
2019-03-15T05:28:14.604Z,1.37
2019-03-15T05:30:43.292Z,0.90
2019-03-15T05:33:12.045Z,1.20
2019-03-15T05:35:40.743Z,0.87
2019-03-15T05:38:09.719Z,1.30
2019-03-15T05:40:38.413Z,1.13
2019-03-15T05:43:07.050Z,1.37
2019-03-15T05:45:36.006Z,1.13
2019-03-15T05:48:04.648Z,0.80
2019-03-15T05:50:33.702Z,0.80
2019-03-15T05:53:02.343Z,0.90
2019-03-15T05:55:31.006Z,0.80
2019-03-15T05:57:59.919Z,0.80
2019-03-15T06:00:28.598Z,1.23
2019-03-15T06:02:59.491Z,0.67
2019-03-15T06:05:28.159Z,1.50
2019-03-15T06:07:57.087Z,0.80
2019-03-15T06:10:25.768Z,0.90
2019-03-15T06:12:54.788Z,1.07
2019-03-15T06:15:23.474Z,0.73
2019-03-15T06:17:52.285Z,0.80
2019-03-15T06:20:21.256Z,1.53
2019-03-15T06:22:49.967Z,0.80
2019-03-15T06:25:18.695Z,0.90
2019-03-15T06:27:47.352Z,0.97
2019-03-15T06:30:16.018Z,1.10
2019-03-15T06:32:44.675Z,1.50
2019-03-15T06:35:13.483Z,1.50
2019-03-15T06:37:42.159Z,1.30
2019-03-15T06:40:13.474Z,1.53
2019-03-15T06:42:41.678Z,1.90
2019-03-15T06:45:10.623Z,1.20
2019-03-15T06:47:39.559Z,1.23
2019-03-15T06:50:08.475Z,1.10
2019-03-15T06:52:37.135Z,1.17
2019-03-15T06:55:06.270Z,1.37
2019-03-15T06:57:35.187Z,1.10
2019-03-15T07:00:05.016Z,1.10
2019-03-15T07:02:34.363Z,1.33
2019-03-15T07:05:03.368Z,1.57
2019-03-15T07:07:32.279Z,1.10
2019-03-15T07:10:00.927Z,1.20
2019-03-15T07:12:29.620Z,1.73
2019-03-15T07:14:58.287Z,1.83
2019-03-15T07:17:27.240Z,2.77
2019-03-15T07:19:56.223Z,1.37
2019-03-15T07:22:24.882Z,1.87
2019-03-15T07:24:53.791Z,1.43
2019-03-15T07:27:22.507Z,1.70
2019-03-15T07:29:51.495Z,1.97
2019-03-15T07:32:20.155Z,1.93
2019-03-15T07:34:49.438Z,1.60
2019-03-15T07:37:18.110Z,2.23
2019-03-15T07:39:46.797Z,1.67
2019-03-15T07:42:15.415Z,2.10
2019-03-15T07:44:44.156Z,1.97
2019-03-15T07:47:13.118Z,1.70
2019-03-15T07:49:42.399Z,1.40
2019-03-15T07:52:11.300Z,1.33
2019-03-15T07:54:39.970Z,0.83
2019-03-15T07:57:09.158Z,1.80
2019-03-15T07:59:37.834Z,1.97
2019-03-15T08:02:06.506Z,1.63
2019-03-15T08:04:36.120Z,1.90
2019-03-15T08:07:05.014Z,1.77
2019-03-15T08:09:33.688Z,1.60
2019-03-15T08:12:02.351Z,1.27
2019-03-15T08:14:31.294Z,1.33
2019-03-15T08:17:00.003Z,1.40
2019-03-15T08:19:29.036Z,1.43
2019-03-15T08:21:58.007Z,1.30
2019-03-15T08:24:26.903Z,1.97
2019-03-15T08:26:55.813Z,1.30
2019-03-15T08:29:24.468Z,1.23
2019-03-15T08:31:53.123Z,1.23
2019-03-15T08:34:22.048Z,1.70
2019-03-15T08:36:50.698Z,1.20
2019-03-15T08:39:19.639Z,1.40
2019-03-15T08:41:48.550Z,0.90
2019-03-15T08:44:17.215Z,1.17
2019-03-15T08:46:45.878Z,1.40
2019-03-15T08:49:14.765Z,1.57
2019-03-15T08:51:43.417Z,1.03
2019-03-15T08:54:12.068Z,1.57
2019-03-15T08:56:40.956Z,1.40
2019-03-15T08:59:18.854Z,1.50
2019-03-15T09:01:47.527Z,1.67
2019-03-15T09:04:16.198Z,1.63
2019-03-15T09:06:45.182Z,1.23
2019-03-15T09:09:14.106Z,1.20
2019-03-15T09:11:43.081Z,1.53
2019-03-15T09:14:11.782Z,1.63
2019-03-15T09:16:40.429Z,1.60
2019-03-15T09:19:09.178Z,1.30
2019-03-15T09:21:37.862Z,2.27
2019-03-15T09:24:06.514Z,2.27
2019-03-15T09:26:35.198Z,1.30
2019-03-15T09:29:09.618Z,1.63
2019-03-15T09:31:47.510Z,1.37
2019-03-15T09:34:08.776Z,1.43
2019-03-15T09:36:49.423Z,1.57
2019-03-15T09:39:08.076Z,2.27
2019-03-15T09:41:39.823Z,1.73
2019-03-15T09:44:07.184Z,1.90
2019-03-15T09:46:36.458Z,2.00
2019-03-15T09:49:06.004Z,1.50
2019-03-15T09:51:34.671Z,1.40
2019-03-15T09:54:03.774Z,1.63
2019-03-15T09:56:32.473Z,1.67
2019-03-15T09:59:01.122Z,1.67
2019-03-15T10:01:35.063Z,2.20
2019-03-15T10:04:00.633Z,2.00
2019-03-15T10:06:29.293Z,2.33
2019-03-15T10:08:57.947Z,2.90
2019-03-15T10:11:26.914Z,2.57
2019-03-15T10:13:55.816Z,2.37
2019-03-15T10:16:24.795Z,2.03
2019-03-15T10:18:53.487Z,2.43
2019-03-15T10:21:22.465Z,1.77
2019-03-15T10:23:51.195Z,2.10
2019-03-15T10:26:20.764Z,1.70
2019-03-15T10:28:49.410Z,2.53
2019-03-15T10:31:18.095Z,2.53
2019-03-15T10:33:50.772Z,2.10
2019-03-15T10:36:17.499Z,2.27
2019-03-15T10:38:46.402Z,1.87
2019-03-15T10:41:15.311Z,1.70
2019-03-15T10:43:44.333Z,1.63
2019-03-15T10:46:13.318Z,2.33
2019-03-15T10:48:41.995Z,1.97
2019-03-15T10:51:10.967Z,2.50
2019-03-15T10:53:39.635Z,1.93
2019-03-15T10:56:08.540Z,2.03
2019-03-15T10:58:37.437Z,1.60
2019-03-15T11:01:06.086Z,1.90
2019-03-15T11:03:35.019Z,1.67
2019-03-15T11:06:04.460Z,2.00
2019-03-15T11:08:33.118Z,1.47
2019-03-15T11:11:01.849Z,1.87
2019-03-15T11:13:30.510Z,1.83
2019-03-15T11:15:59.142Z,1.37
2019-03-15T11:18:27.788Z,1.60
2019-03-15T11:20:56.423Z,1.53
2019-03-15T11:23:25.090Z,2.17
2019-03-15T11:25:54.040Z,1.30
2019-03-15T11:28:22.692Z,1.87
2019-03-15T11:30:51.409Z,1.57
2019-03-15T11:33:20.048Z,1.97
2019-03-15T11:35:48.711Z,2.03
2019-03-15T11:38:17.371Z,1.80
2019-03-15T11:40:46.040Z,2.20
2019-03-15T11:43:14.674Z,1.57
2019-03-15T11:45:43.319Z,2.13
2019-03-15T11:48:11.988Z,1.67
2019-03-15T11:50:40.647Z,1.60
2019-03-15T11:53:09.321Z,1.83
2019-03-15T11:55:38.537Z,1.73
2019-03-15T11:58:07.240Z,2.20
2019-03-15T12:00:35.935Z,1.60
2019-03-15T12:03:04.603Z,1.70
2019-03-15T12:05:33.267Z,1.60
2019-03-15T12:08:01.931Z,1.60
2019-03-15T12:10:31.034Z,2.57
2019-03-15T12:13:00.024Z,2.70
2019-03-15T12:15:28.862Z,1.40
2019-03-15T12:17:57.543Z,2.30
2019-03-15T12:20:26.700Z,2.30
2019-03-15T12:22:55.340Z,1.70
2019-03-15T12:25:24.017Z,1.40
2019-03-15T12:27:52.942Z,2.00
2019-03-15T12:30:21.987Z,1.77
2019-03-15T12:32:50.999Z,1.63
2019-03-15T12:35:19.670Z,1.70
2019-03-15T12:37:48.352Z,1.70
2019-03-15T12:40:17.112Z,1.60
2019-03-15T12:42:45.856Z,1.67
2019-03-15T12:45:14.659Z,1.50
2019-03-15T12:47:43.326Z,2.07
2019-03-15T12:50:12.063Z,2.00
2019-03-15T12:52:47.619Z,1.93
2019-03-15T12:55:11.455Z,2.20
2019-03-15T12:57:40.475Z,2.00
2019-03-15T13:00:11.497Z,2.00
2019-03-15T13:02:40.161Z,2.13
2019-03-15T13:05:09.510Z,1.90
2019-03-15T13:07:38.203Z,1.60
2019-03-15T13:10:10.338Z,2.00
2019-03-15T13:12:39.626Z,2.07
2019-03-15T13:15:10.139Z,2.10
2019-03-15T13:17:39.175Z,1.77
2019-03-15T13:20:08.950Z,1.73
2019-03-15T13:22:38.146Z,1.60
2019-03-15T13:25:07.764Z,2.37
2019-03-15T13:27:36.444Z,2.00
2019-03-15T13:30:05.753Z,1.70
2019-03-15T13:32:34.436Z,2.37
2019-03-15T13:35:03.566Z,2.10
2019-03-15T13:37:32.572Z,2.00
2019-03-15T13:40:01.557Z,1.83
2019-03-15T13:42:30.507Z,1.40
2019-03-15T13:44:59.411Z,2.03
2019-03-15T13:47:28.084Z,1.70
2019-03-15T13:49:56.743Z,1.63
2019-03-15T13:52:25.408Z,1.53
2019-03-15T13:54:54.055Z,1.93
2019-03-15T13:57:22.729Z,1.83
2019-03-15T13:59:51.406Z,1.30
2019-03-15T14:02:20.055Z,1.20
2019-03-15T14:04:48.717Z,1.53
2019-03-15T14:07:19.821Z,1.50
2019-03-15T14:09:48.180Z,1.40
2019-03-15T14:12:17.255Z,1.43
2019-03-15T14:14:46.476Z,1.53
2019-03-15T14:17:15.854Z,1.37
2019-03-15T14:19:44.502Z,1.50
2019-03-15T14:22:13.156Z,1.73
2019-03-15T14:24:41.799Z,1.80
2019-03-15T14:27:10.475Z,2.03
2019-03-15T14:29:39.196Z,1.90
2019-03-15T14:32:08.044Z,1.73
2019-03-15T14:34:36.719Z,1.83
2019-03-15T14:37:05.700Z,1.93
2019-03-15T14:39:34.904Z,2.63
2019-03-15T14:42:03.986Z,2.20
2019-03-15T14:44:33.002Z,2.30
2019-03-15T14:47:02.051Z,2.50
2019-03-15T14:49:30.995Z,2.90
2019-03-15T14:52:00.050Z,4.77
2019-03-15T14:54:28.703Z,3.10
2019-03-15T14:56:57.656Z,3.23
2019-03-15T14:59:26.646Z,3.53
2019-03-15T15:01:55.592Z,2.90
2019-03-15T15:04:24.219Z,4.27
2019-03-15T15:06:52.920Z,3.27
2019-03-15T15:09:21.888Z,3.30
2019-03-15T15:11:51.267Z,3.43
2019-03-15T15:14:19.894Z,2.80
2019-03-15T15:17:09.964Z,3.43
2019-03-15T15:19:39.068Z,3.07
2019-03-15T15:22:07.743Z,3.33
2019-03-15T15:24:36.714Z,3.30
2019-03-15T15:27:05.369Z,3.00
2019-03-15T15:29:33.991Z,3.33
2019-03-15T15:32:02.655Z,3.37
2019-03-15T15:34:31.589Z,2.67
2019-03-15T15:37:00.247Z,2.80
2019-03-15T15:39:28.883Z,2.67
2019-03-15T15:41:58.721Z,2.77
2019-03-15T15:44:27.522Z,3.10
2019-03-15T15:46:56.202Z,3.03
2019-03-15T15:49:26.198Z,3.00
2019-03-15T15:51:55.098Z,3.23
2019-03-15T15:54:24.032Z,3.20
2019-03-15T15:56:53.116Z,2.60
2019-03-15T15:59:22.324Z,3.27
2019-03-15T16:01:50.994Z,2.67
2019-03-15T16:04:19.620Z,2.80
2019-03-15T16:06:48.826Z,3.13
2019-03-15T16:09:17.536Z,3.20
2019-03-15T16:11:46.887Z,2.70
2019-03-15T16:14:15.631Z,2.33
2019-03-15T16:16:44.316Z,2.30
2019-03-15T16:19:12.947Z,2.60
2019-03-15T16:21:41.597Z,2.80
2019-03-15T16:24:10.582Z,2.23
2019-03-15T16:26:39.608Z,2.23
2019-03-15T16:29:08.248Z,1.60
2019-03-15T16:31:36.903Z,2.00
2019-03-15T16:34:05.594Z,2.00
2019-03-15T16:36:34.406Z,1.77
2019-03-15T16:39:03.923Z,2.07
2019-03-15T16:41:32.969Z,2.10
2019-03-15T16:44:01.694Z,1.93
2019-03-15T16:46:30.402Z,1.80
2019-03-15T16:48:59.339Z,1.73
2019-03-15T16:51:28.083Z,1.90
2019-03-15T16:53:56.863Z,1.70
2019-03-15T16:56:25.514Z,1.50
2019-03-15T16:58:54.502Z,1.77
2019-03-15T17:01:23.280Z,1.30
2019-03-15T17:03:52.321Z,1.20
2019-03-15T17:06:22.107Z,1.30
2019-03-15T17:08:50.771Z,1.60
2019-03-15T17:11:19.439Z,1.23
2019-03-15T17:13:48.385Z,1.70
2019-03-15T17:16:18.222Z,1.20
2019-03-15T17:18:47.433Z,1.20
2019-03-15T17:21:17.243Z,1.97
2019-03-15T17:23:46.143Z,1.40
2019-03-15T17:26:14.955Z,1.10
2019-03-15T17:28:43.856Z,1.27
2019-03-15T17:31:13.038Z,0.87
2019-03-15T17:33:42.065Z,1.00
2019-03-15T17:36:10.782Z,0.90
2019-03-15T17:38:39.762Z,0.73
2019-03-15T17:41:08.667Z,0.83
2019-03-15T17:43:37.606Z,0.90
2019-03-15T17:46:13.024Z,0.80
2019-03-15T17:48:41.884Z,0.67
2019-03-15T17:51:10.550Z,1.00
2019-03-15T17:53:39.927Z,0.77
2019-03-15T17:56:08.577Z,0.83
2019-03-15T17:58:37.235Z,0.90
2019-03-15T18:01:05.955Z,0.80
2019-03-15T18:03:34.700Z,1.40
2019-03-15T18:06:03.428Z,0.70
2019-03-15T18:08:32.114Z,0.80
2019-03-15T18:11:00.799Z,0.67
2019-03-15T18:13:29.542Z,1.27
2019-03-15T18:15:58.286Z,0.90
2019-03-15T18:18:26.995Z,0.90
2019-03-15T18:20:56.000Z,0.70
2019-03-15T18:23:24.665Z,1.10
2019-03-15T18:25:54.683Z,0.80
2019-03-15T18:28:23.342Z,0.83
2019-03-15T18:30:52.001Z,1.10
2019-03-15T18:33:20.736Z,0.90
2019-03-15T18:35:49.379Z,1.17
2019-03-15T18:38:18.068Z,0.70
2019-03-15T18:40:47.035Z,0.73
2019-03-15T18:43:15.852Z,0.93
2019-03-15T18:45:44.510Z,0.70
2019-03-15T18:48:13.483Z,1.17
2019-03-15T18:50:42.439Z,1.00
2019-03-15T18:53:11.101Z,0.80
2019-03-15T18:55:40.097Z,0.70
2019-03-15T18:58:10.867Z,0.93
2019-03-15T19:00:39.582Z,0.97
2019-03-15T19:03:08.518Z,1.33
2019-03-15T19:05:37.785Z,1.00
2019-03-15T19:08:06.916Z,0.90
2019-03-15T19:10:38.591Z,1.03
2019-03-15T19:13:06.360Z,0.67
2019-03-15T19:15:35.345Z,1.03
2019-03-15T19:18:04.209Z,0.63
2019-03-15T19:20:33.192Z,0.90
2019-03-15T19:23:01.978Z,0.70
2019-03-15T19:25:30.740Z,0.83
2019-03-15T19:27:59.543Z,0.87
2019-03-15T19:30:28.358Z,1.00
2019-03-15T19:32:57.076Z,0.40
2019-03-15T19:35:25.833Z,0.50
2019-03-15T19:38:56.942Z,0.80
2019-03-15T19:41:25.625Z,0.50
2019-03-15T19:43:54.330Z,0.77
2019-03-15T19:46:22.955Z,0.80
2019-03-15T19:48:51.663Z,0.80
2019-03-15T19:51:20.339Z,0.60
2019-03-15T19:53:49.045Z,0.67
2019-03-15T19:56:17.975Z,0.90
2019-03-15T19:58:46.598Z,0.60
2019-03-15T20:01:15.303Z,0.93
2019-03-15T20:03:44.579Z,0.97
2019-03-15T20:06:13.694Z,0.63
2019-03-15T20:08:42.612Z,0.80
2019-03-15T20:11:11.275Z,0.60
2019-03-15T20:13:40.315Z,0.77
2019-03-15T20:16:08.974Z,1.17
2019-03-15T20:18:38.295Z,0.90
2019-03-15T20:21:07.002Z,0.60
2019-03-15T20:23:35.871Z,0.90
2019-03-15T20:26:04.557Z,0.67
2019-03-15T20:28:33.238Z,0.77
2019-03-15T20:31:03.957Z,0.50
2019-03-15T20:33:32.603Z,0.77
2019-03-15T20:36:01.265Z,0.80
2019-03-15T20:38:30.264Z,0.73
2019-03-15T20:40:58.911Z,0.70
2019-03-15T20:43:27.599Z,0.67
2019-03-15T20:45:56.235Z,0.50
2019-03-15T20:48:24.946Z,0.70
2019-03-15T20:50:53.851Z,0.73
2019-03-15T20:53:23.100Z,1.20
2019-03-15T20:55:52.514Z,1.13
2019-03-15T20:58:22.473Z,1.03
2019-03-15T21:00:51.386Z,1.07
2019-03-15T21:03:20.126Z,1.27
2019-03-15T21:05:48.791Z,1.43
2019-03-15T21:08:17.482Z,0.87
2019-03-15T21:10:46.157Z,0.83
2019-03-15T21:13:16.219Z,1.07
2019-03-15T21:15:44.933Z,0.87
2019-03-15T21:18:13.612Z,0.83
2019-03-15T21:20:42.578Z,0.60
2019-03-15T21:23:11.285Z,1.33
2019-03-15T21:25:40.617Z,0.90
2019-03-15T21:28:09.635Z,0.67
2019-03-15T21:30:47.865Z,1.10
2019-03-15T21:33:08.734Z,0.60
2019-03-15T21:35:37.429Z,1.53
2019-03-15T21:38:06.222Z,0.90
2019-03-15T21:40:34.905Z,1.23
2019-03-15T21:43:03.564Z,0.83
2019-03-15T21:45:32.289Z,1.40
2019-03-15T21:48:00.945Z,1.30
2019-03-15T21:50:29.615Z,1.87
2019-03-15T21:52:58.557Z,1.07
2019-03-15T21:56:37.857Z,1.33
2019-03-15T21:59:06.870Z,1.10
2019-03-15T22:01:35.807Z,0.73
2019-03-15T22:04:04.855Z,1.57
2019-03-15T22:06:33.847Z,1.23
2019-03-15T22:09:02.912Z,1.10
2019-03-15T22:11:31.897Z,1.17
2019-03-15T22:14:00.862Z,1.33
2019-03-15T22:16:29.533Z,1.07
2019-03-15T22:18:58.307Z,1.23
2019-03-15T22:21:27.011Z,1.20
2019-03-15T22:23:55.971Z,1.20
2019-03-15T22:26:24.619Z,1.13
2019-03-15T22:28:53.525Z,1.53
2019-03-15T22:31:22.529Z,1.53
2019-03-15T22:33:51.226Z,1.40
2019-03-15T22:36:20.257Z,0.90
2019-03-15T22:38:48.958Z,0.90
2019-03-15T22:41:17.648Z,0.67
2019-03-15T22:43:46.588Z,0.80
2019-03-15T22:46:15.595Z,1.20
2019-03-15T22:48:44.523Z,1.07
2019-03-15T22:51:13.569Z,1.20
2019-03-15T22:53:42.235Z,0.80
2019-03-15T22:56:10.932Z,1.00
2019-03-15T22:58:39.642Z,1.13
2019-03-15T23:01:09.667Z,1.53
2019-03-15T23:03:38.562Z,1.47
2019-03-15T23:06:07.238Z,1.40
2019-03-15T23:08:36.186Z,1.13
2019-03-15T23:11:04.980Z,1.20
2019-03-15T23:13:33.628Z,1.13
2019-03-15T23:16:02.332Z,1.33
2019-03-15T23:18:30.985Z,0.93
2019-03-15T23:21:00.079Z,0.90
2019-03-15T23:23:28.744Z,1.10
2019-03-15T23:25:57.398Z,1.37
2019-03-15T23:28:26.055Z,1.10
2019-03-15T23:30:54.982Z,1.20
2019-03-15T23:33:25.304Z,1.30
2019-03-15T23:35:54.547Z,1.40
2019-03-15T23:38:23.879Z,0.80
2019-03-15T23:40:52.687Z,1.67
2019-03-15T23:43:40.618Z,1.67
2019-03-15T23:46:09.250Z,1.10
2019-03-15T23:48:37.910Z,1.30
2019-03-15T23:51:06.590Z,1.50
2019-03-15T23:53:35.539Z,1.10
2019-03-15T23:56:04.255Z,0.60
